Terminal Aerodrome Forecast
Issued by NWS

Home | Current Version | Previous Version | Text Only | Print | Product List | Glossary On
Versions: 1 2 3 4 5 6 7 8 9 10 11 12 13 14
000
FTUS43 KDVN 290959 AAB
TAFBRL
TAF AMD
KBRL 290959Z 2910/3006 16009KT P6SM VCSH OVC060
     FM291100 18005KT 6SM BR OVC025
     FM291500 18006KT P6SM BKN025
     FM292100 15006KT P6SM VCSH BKN040=

USA.gov is the U.S. government's official web portal to all federal, state and local government web resources and services.